Agudo, Spain
Current Conditions -  °F | °C
As of 9:00 AM on Tuesday 21 Oct 2014 (Local Time) from LEAO Reporting Station
Clear Clear  
Wind Chill: 50°   Ceiling: Unl
Heat Index: 50°   Visibility: 6mi
Dew Point: 50°   Wind: 0mph
Humidity: 100%   Direction: NA
Pressure: 30.3"   Gusts: NA
Location:  38.98°N, 4.87°W
Report Text: LEAO 210700Z 00000KT CAVOK 10/10 Q1026
Loading
Personal Weather Stations






























Interactive Weather Map
Tropical Storm Tracking
New forecast layout! Learn more

10-Day Weather Forecast

Advertisements
Track Severe Weather on mobile